Fort Lauderdale, FL (33301)

6:33 AM EDT on September 04, 2015 (GMT -0400)
Victoria Park | | Change Station
CLOSE
Current Station
Personal Weather Station
Location: Fort Lauderdale, FL
Elevation: 30 ft
Nearby Weather Stations

Elev 30 ft 26.13 °N, 80.13 °W | Updated 13 minutes ago

Clear
Clear
81.1 °F
Feels Like 86 °F
N
0.0
Wind Variable Wind from West

Today
High -- | Low -- °F
--% Chance of Precip.
Yesterday
High -- | Low -- °F
Precip. -- in
7:01 AM 7:37 PM
Waning Gibbous, 61% visible
Pressure 29.94 in
Visibility 10.0 miles
Clouds Mostly Cloudy 2400 ft
Mostly Cloudy 25000 ft
Heat Index 86 °F
Dew Point 73 °F
Humidity 77%
Rainfall 0.00 in
Snow Depth Not available.
UV 0 out of 12
Pollen 4.20 out of 12
Air Quality Not available.
Flu Activity Not available.
SPECI KFLL 041030Z 00000KT 10SM BKN024 BKN250 26/23 A2994 RMK AO2 T02610233
Pressure 29.94 in
Visibility 10.0 miles
Clouds Mostly Cloudy 2400 ft
Mostly Cloudy 25000 ft
Heat Index 86 °F
Dew Point 73 °F
Humidity 77%
Rainfall 0.00 in
Snow Depth Not available.
UV 0 out of 12
Pollen 4.20 out of 12
Air Quality Not available.
Flu Activity Not available.
SPECI KFLL 041030Z 00000KT 10SM BKN024 BKN250 26/23 A2994 RMK AO2 T02610233

10-Day Weather Forecast

×

Almanac

Astronomy

Sep. 04, 2015 Rise Set
Actual Time
Civil Twilight
Nautical Twilight
Astronomical Twilight
Moon
Length of Visible Light
Length of Day
Tomorrow will be .
, % of the Moon is Illuminated

Today's Extremes

State Highs State Lows

Community

WunderPhotos

Upload Photos

1,852,146 photos uploaded!

WunderBlogs® & News

Nearby

Air Quality

  Air Quality AQ Index Pollutant
Not available.

Snow Depth

Station Depth Elevation

Earthquake Activity

City Distance Mag. Time & Date
Minimum magnitude displayed is 2.5.

Coastal Water Temperatures

Place Temperature

Stations

Nearby Weather Stations

Station Location Temp. Windchill Dew Point Humidity Wind Precip. Elev Updated Type